createdAt,value
2022-10-20T00:01:18.733Z,57.82
2022-10-20T00:03:46.818Z,57.53
2022-10-20T00:06:16.348Z,57.62
2022-10-20T00:08:44.567Z,57.52
2022-10-20T00:11:14.718Z,57.56
2022-10-20T00:13:43.686Z,57.39
2022-10-20T00:16:11.080Z,57.80
2022-10-20T00:18:38.819Z,57.35
2022-10-20T00:21:08.220Z,57.21
2022-10-20T00:23:36.016Z,57.77
2022-10-20T00:26:10.908Z,57.40
2022-10-20T00:28:38.152Z,57.44
2022-10-20T00:31:06.278Z,57.47
2022-10-20T00:33:34.180Z,57.24
2022-10-20T00:36:02.750Z,57.25
2022-10-20T00:38:29.655Z,57.40
2022-10-20T00:40:56.824Z,57.40
2022-10-20T00:43:23.715Z,57.33
2022-10-20T00:45:55.052Z,57.16
2022-10-20T00:48:34.892Z,57.44
2022-10-20T00:51:01.991Z,57.25
2022-10-20T00:53:29.895Z,57.21
2022-10-20T00:55:58.743Z,57.25
2022-10-20T00:58:26.865Z,57.13
2022-10-20T01:00:57.967Z,57.11
2022-10-20T01:03:32.290Z,57.09
2022-10-20T01:05:59.159Z,57.46
2022-10-20T01:08:26.080Z,57.32
2022-10-20T01:11:17.672Z,57.36
2022-10-20T01:14:33.834Z,57.53
2022-10-20T01:17:42.642Z,57.53
2022-10-20T01:21:11.403Z,57.47
2022-10-20T01:24:17.433Z,57.48
2022-10-20T01:27:20.599Z,57.65
2022-10-20T01:30:19.420Z,57.68
2022-10-20T01:33:13.084Z,57.37
2022-10-20T01:36:03.994Z,58.01
2022-10-20T01:38:48.319Z,58.13
2022-10-20T01:42:05.874Z,57.82
2022-10-20T01:44:36.343Z,58.18
2022-10-20T01:47:03.908Z,58.18
2022-10-20T01:49:30.868Z,58.06
2022-10-20T01:51:57.755Z,58.12
2022-10-20T01:54:27.886Z,57.88
2022-10-20T01:57:24.807Z,58.19
2022-10-20T02:00:06.951Z,58.47
2022-10-20T02:03:22.247Z,58.29
2022-10-20T02:06:04.886Z,58.52
2022-10-20T02:08:44.654Z,58.51
2022-10-20T02:11:40.852Z,58.48
2022-10-20T02:14:12.022Z,58.37
2022-10-20T02:16:52.400Z,58.20
2022-10-20T02:19:23.315Z,58.48
2022-10-20T02:21:53.132Z,58.29
2022-10-20T02:24:26.085Z,58.15
2022-10-20T02:26:56.611Z,58.30
2022-10-20T02:29:29.516Z,58.39
2022-10-20T02:31:56.999Z,58.48
2022-10-20T02:34:26.792Z,58.91
2022-10-20T02:36:58.461Z,58.42
2022-10-20T02:39:25.992Z,58.18
2022-10-20T02:41:52.954Z,58.08
2022-10-20T02:44:19.833Z,58.05
2022-10-20T02:46:46.708Z,57.97
2022-10-20T02:49:13.596Z,57.88
2022-10-20T02:51:40.533Z,57.55
2022-10-20T02:54:07.490Z,57.77
2022-10-20T02:56:34.384Z,57.61
2022-10-20T02:59:01.280Z,57.95
2022-10-20T03:01:28.219Z,57.50
2022-10-20T03:03:59.524Z,57.68
2022-10-20T03:06:26.620Z,57.65
2022-10-20T03:08:53.554Z,57.57
2022-10-20T03:11:20.459Z,57.92
2022-10-20T03:13:47.344Z,57.93
2022-10-20T03:16:14.231Z,57.48
2022-10-20T03:18:41.099Z,57.56
2022-10-20T03:21:08.373Z,58.17
2022-10-20T03:23:35.233Z,57.95
2022-10-20T03:26:04.611Z,57.58
2022-10-20T03:28:31.641Z,58.18
2022-10-20T03:30:58.625Z,58.03
2022-10-20T03:33:25.664Z,57.97
2022-10-20T03:35:52.621Z,57.94
2022-10-20T03:38:19.712Z,57.72
2022-10-20T03:40:46.676Z,57.90
2022-10-20T03:43:15.312Z,58.39
2022-10-20T03:45:42.996Z,57.69
2022-10-20T03:48:11.681Z,57.97
2022-10-20T03:50:40.239Z,58.19
2022-10-20T03:53:07.801Z,58.04
2022-10-20T03:55:34.676Z,58.04
2022-10-20T03:58:01.777Z,58.32
2022-10-20T04:00:28.704Z,58.44
2022-10-20T04:02:55.611Z,58.26
2022-10-20T04:05:22.493Z,58.44
2022-10-20T04:07:49.424Z,58.64
2022-10-20T04:10:17.245Z,58.50
2022-10-20T04:12:44.247Z,59.12
2022-10-20T04:15:11.277Z,59.09
2022-10-20T04:20:07.606Z,58.46
2022-10-20T04:22:34.694Z,59.00
2022-10-20T04:25:02.145Z,59.28
2022-10-20T04:27:29.259Z,59.29
2022-10-20T04:29:56.126Z,58.98
2022-10-20T04:32:23.016Z,59.44
2022-10-20T04:34:49.942Z,59.55
2022-10-20T04:37:16.846Z,59.57
2022-10-20T04:39:43.717Z,59.57
2022-10-20T04:42:10.608Z,59.28
2022-10-20T04:44:37.462Z,59.10
2022-10-20T04:47:04.420Z,59.36
2022-10-20T04:49:31.298Z,58.90
2022-10-20T04:52:00.974Z,59.22
2022-10-20T04:54:29.009Z,58.65
2022-10-20T04:56:56.303Z,59.10
2022-10-20T04:59:23.206Z,59.41
2022-10-20T05:01:50.139Z,59.26
2022-10-20T05:04:21.247Z,59.29
2022-10-20T05:06:49.280Z,58.71
2022-10-20T05:09:16.937Z,58.86
2022-10-20T05:11:43.985Z,59.09
2022-10-20T05:14:11.134Z,58.86
2022-10-20T05:16:38.043Z,58.89
2022-10-20T05:19:05.211Z,59.33
2022-10-20T05:21:32.536Z,59.17
2022-10-20T05:24:05.057Z,59.01
2022-10-20T05:26:36.514Z,59.36
2022-10-20T05:29:06.639Z,59.72
2022-10-20T05:31:38.480Z,59.90
2022-10-20T05:34:05.634Z,59.47
2022-10-20T05:36:32.555Z,60.35
2022-10-20T05:38:59.652Z,59.50
2022-10-20T05:41:33.375Z,60.12
2022-10-20T05:44:05.842Z,60.41
2022-10-20T05:46:35.420Z,60.55
2022-10-20T05:49:03.465Z,60.14
2022-10-20T05:51:34.720Z,60.13
2022-10-20T05:54:01.814Z,60.65
2022-10-20T05:56:30.444Z,60.62
2022-10-20T05:58:58.127Z,60.74
2022-10-20T06:01:28.360Z,60.93
2022-10-20T06:03:58.230Z,60.91
2022-10-20T06:06:30.727Z,61.02
2022-10-20T06:09:00.371Z,61.16
2022-10-20T06:11:27.587Z,60.88
2022-10-20T06:13:56.427Z,61.25
2022-10-20T06:16:25.763Z,60.92
2022-10-20T06:18:53.348Z,61.27
2022-10-20T06:21:24.726Z,61.23
2022-10-20T06:23:52.250Z,61.43
2022-10-20T06:26:24.744Z,61.35
2022-10-20T06:28:58.622Z,61.69
2022-10-20T06:31:33.893Z,61.46
2022-10-20T06:34:01.872Z,61.74
2022-10-20T06:36:28.805Z,61.76
2022-10-20T06:38:59.566Z,61.74
2022-10-20T06:41:27.784Z,61.73
2022-10-20T06:43:58.887Z,61.82
2022-10-20T06:46:28.809Z,61.75
2022-10-20T06:48:58.668Z,61.97
2022-10-20T06:51:26.553Z,61.92
2022-10-20T06:53:53.675Z,61.79
2022-10-20T06:56:24.393Z,62.12
2022-10-20T06:58:53.516Z,62.19
2022-10-20T07:01:30.214Z,62.18
2022-10-20T07:04:04.491Z,61.98
2022-10-20T07:06:44.174Z,62.05
2022-10-20T07:09:17.462Z,62.29
2022-10-20T07:11:44.818Z,62.39
2022-10-20T07:14:14.657Z,62.32
2022-10-20T07:16:41.957Z,62.42
2022-10-20T07:19:08.951Z,62.75
2022-10-20T07:21:38.321Z,62.90
2022-10-20T07:24:09.401Z,62.71
2022-10-20T07:26:39.835Z,62.91
2022-10-20T07:29:07.244Z,62.86
2022-10-20T07:31:39.339Z,63.08
2022-10-20T07:34:26.284Z,63.46
2022-10-20T07:36:54.546Z,63.24
2022-10-20T07:39:21.424Z,63.42
2022-10-20T07:41:48.665Z,63.51
2022-10-20T07:44:16.707Z,63.68
2022-10-20T07:46:44.160Z,63.89
2022-10-20T07:51:57.873Z,63.82
2022-10-20T07:54:24.749Z,64.20
2022-10-20T07:56:51.821Z,63.95
2022-10-20T07:59:19.087Z,63.88
2022-10-20T08:01:46.466Z,64.04
2022-10-20T08:04:13.535Z,63.81
2022-10-20T08:06:40.410Z,63.76
2022-10-20T08:09:07.834Z,63.83
2022-10-20T08:11:35.567Z,63.59
2022-10-20T08:14:02.490Z,63.77
2022-10-20T08:16:34.531Z,63.66
2022-10-20T08:21:54.288Z,63.54
2022-10-20T08:24:21.295Z,63.57
2022-10-20T08:26:48.157Z,63.07
2022-10-20T08:29:15.050Z,62.75
2022-10-20T08:31:44.610Z,62.56
2022-10-20T08:34:11.540Z,61.76
2022-10-20T08:36:38.488Z,61.77
2022-10-20T08:39:06.425Z,61.47
2022-10-20T08:44:37.383Z,61.47
2022-10-20T08:47:15.529Z,61.22
2022-10-20T08:49:45.353Z,61.15
2022-10-20T08:52:15.417Z,60.92
2022-10-20T08:54:42.772Z,60.18
2022-10-20T08:57:24.109Z,58.88
2022-10-20T08:59:54.160Z,58.55
2022-10-20T09:02:22.285Z,57.81
2022-10-20T09:04:58.994Z,58.19
2022-10-20T09:07:39.914Z,57.91
2022-10-20T09:10:17.843Z,57.27
2022-10-20T09:12:47.623Z,56.60
2022-10-20T09:15:16.848Z,55.91
2022-10-20T09:17:59.072Z,54.91
2022-10-20T09:20:42.593Z,55.14
2022-10-20T09:23:38.992Z,54.82
2022-10-20T09:26:24.802Z,54.68
2022-10-20T09:29:14.625Z,54.31
2022-10-20T09:31:54.259Z,54.05
2022-10-20T09:34:33.678Z,53.68
2022-10-20T09:37:08.142Z,53.56
2022-10-20T09:39:50.159Z,54.11
2022-10-20T09:42:35.728Z,54.14
2022-10-20T09:45:22.143Z,53.40
2022-10-20T09:47:56.682Z,53.72
2022-10-20T09:50:39.558Z,52.78
2022-10-20T09:53:21.050Z,52.89
2022-10-20T09:55:50.199Z,53.21
2022-10-20T09:58:38.234Z,53.27
2022-10-20T10:01:16.761Z,53.01
2022-10-20T10:03:49.236Z,52.66
2022-10-20T10:06:39.046Z,52.95
2022-10-20T10:09:34.472Z,52.73
2022-10-20T10:12:05.814Z,52.23
2022-10-20T10:14:35.346Z,52.50
2022-10-20T10:17:02.454Z,52.33
2022-10-20T10:19:32.694Z,52.29
2022-10-20T10:22:02.009Z,51.99
2022-10-20T10:24:47.325Z,52.15
2022-10-20T10:27:33.118Z,51.96
2022-10-20T10:30:27.358Z,51.63
2022-10-20T10:32:54.845Z,51.78
2022-10-20T10:35:31.884Z,52.15
2022-10-20T10:37:59.887Z,51.62
2022-10-20T10:40:38.776Z,51.68
2022-10-20T10:43:50.748Z,51.63
2022-10-20T10:46:26.056Z,51.31
2022-10-20T10:49:15.921Z,51.16
2022-10-20T10:51:55.819Z,51.21
2022-10-20T10:55:06.703Z,50.36
2022-10-20T10:58:25.157Z,50.22
2022-10-20T11:01:18.720Z,50.68
2022-10-20T11:04:04.525Z,50.97
2022-10-20T11:06:44.953Z,50.47
2022-10-20T11:09:27.508Z,50.49
2022-10-20T11:12:59.206Z,50.07
2022-10-20T11:16:00.389Z,50.26
2022-10-20T11:19:08.139Z,49.75
2022-10-20T11:22:14.051Z,49.57
2022-10-20T11:25:07.616Z,48.82
2022-10-20T11:27:37.265Z,48.71
2022-10-20T11:30:18.257Z,49.20
2022-10-20T11:32:50.772Z,48.64
2022-10-20T11:35:42.715Z,48.89
2022-10-20T11:38:31.631Z,48.63
2022-10-20T11:41:09.848Z,48.59
2022-10-20T11:44:01.226Z,48.54
2022-10-20T11:46:49.342Z,48.13
2022-10-20T11:49:16.500Z,47.79
2022-10-20T11:52:05.924Z,48.14
2022-10-20T11:54:54.428Z,48.09
2022-10-20T11:57:56.454Z,47.60
2022-10-20T12:00:58.947Z,47.71
2022-10-20T12:03:47.914Z,47.64
2022-10-20T12:07:12.747Z,47.41
2022-10-20T12:10:03.859Z,47.03
2022-10-20T12:12:41.915Z,47.05
2022-10-20T12:15:22.996Z,46.42
2022-10-20T12:17:52.192Z,46.67
2022-10-20T12:20:22.085Z,46.88
2022-10-20T12:22:52.851Z,46.93
2022-10-20T12:25:37.733Z,47.18
2022-10-20T12:28:33.835Z,47.80
2022-10-20T12:31:05.748Z,47.85
2022-10-20T12:33:49.296Z,47.35
2022-10-20T12:36:19.160Z,47.54
2022-10-20T12:38:48.115Z,47.42
2022-10-20T12:41:34.845Z,46.72
2022-10-20T12:44:06.178Z,47.19
2022-10-20T12:46:43.813Z,47.23
2022-10-20T12:49:35.372Z,47.06
2022-10-20T12:52:04.688Z,46.83
2022-10-20T12:54:46.236Z,47.09
2022-10-20T12:58:24.306Z,46.56
2022-10-20T13:00:51.084Z,46.66
2022-10-20T13:03:42.991Z,45.94
2022-10-20T13:06:27.688Z,46.19
2022-10-20T13:09:03.782Z,46.04
2022-10-20T13:11:37.666Z,45.18
2022-10-20T13:14:13.508Z,45.08
2022-10-20T13:16:51.057Z,45.03
2022-10-20T13:20:01.714Z,45.05
2022-10-20T13:22:35.833Z,45.18
2022-10-20T13:25:06.701Z,45.43
2022-10-20T13:27:33.753Z,44.52
2022-10-20T13:30:00.721Z,44.66
2022-10-20T13:33:11.013Z,44.60
2022-10-20T13:36:30.329Z,44.25
2022-10-20T13:39:02.672Z,44.29
2022-10-20T13:42:06.641Z,45.04
2022-10-20T13:45:02.622Z,44.81
2022-10-20T13:47:45.042Z,45.36
2022-10-20T13:52:54.167Z,45.00
2022-10-20T13:55:26.305Z,44.58
2022-10-20T13:58:05.762Z,44.54
2022-10-20T14:00:36.076Z,44.40
2022-10-20T14:03:18.009Z,44.63
2022-10-20T14:05:44.861Z,44.58
2022-10-20T14:08:16.423Z,45.17
2022-10-20T14:11:00.438Z,45.68
2022-10-20T14:13:31.296Z,45.65
2022-10-20T14:16:00.348Z,45.66
2022-10-20T14:18:35.631Z,45.45
2022-10-20T14:21:15.519Z,45.23
2022-10-20T14:23:45.561Z,45.33
2022-10-20T14:26:18.320Z,45.93
2022-10-20T14:28:46.492Z,45.43
2022-10-20T14:31:14.903Z,44.97
2022-10-20T14:33:45.635Z,45.08
2022-10-20T14:36:31.156Z,44.63
2022-10-20T14:39:00.957Z,44.63
2022-10-20T14:41:34.438Z,44.52
2022-10-20T14:44:08.493Z,45.08
2022-10-20T14:46:45.980Z,44.08
2022-10-20T14:49:23.251Z,43.41
2022-10-20T14:52:00.848Z,43.91
2022-10-20T14:54:36.203Z,43.95
2022-10-20T14:57:09.395Z,43.98
2022-10-20T14:59:50.726Z,44.22
2022-10-20T15:02:21.031Z,44.04
2022-10-20T15:04:51.907Z,44.17
2022-10-20T15:07:34.869Z,44.37
2022-10-20T15:10:14.789Z,44.50
2022-10-20T15:12:48.939Z,44.48
2022-10-20T15:15:23.421Z,44.48
2022-10-20T15:18:13.176Z,44.62
2022-10-20T15:20:42.909Z,44.57
2022-10-20T15:23:21.268Z,44.68
2022-10-20T15:26:06.513Z,44.69
2022-10-20T15:28:43.182Z,44.85
2022-10-20T15:31:12.850Z,44.99
2022-10-20T15:33:40.980Z,44.65
2022-10-20T15:36:22.672Z,44.74
2022-10-20T15:38:50.442Z,45.11
2022-10-20T15:41:21.113Z,45.11
2022-10-20T15:43:48.009Z,45.28
2022-10-20T15:46:16.871Z,45.42
2022-10-20T15:48:44.531Z,45.38
2022-10-20T15:51:21.119Z,45.73
2022-10-20T15:53:49.508Z,45.70
2022-10-20T15:56:17.605Z,45.95
2022-10-20T15:58:45.001Z,46.13
2022-10-20T16:01:19.677Z,46.39
2022-10-20T16:03:48.084Z,46.96
2022-10-20T16:06:17.863Z,47.15
2022-10-20T16:08:47.647Z,47.60
2022-10-20T16:11:16.806Z,47.94
2022-10-20T16:13:43.896Z,48.35
2022-10-20T16:16:20.702Z,48.42
2022-10-20T16:18:48.449Z,48.46
2022-10-20T16:21:15.365Z,48.86
2022-10-20T16:23:44.845Z,48.81
2022-10-20T16:26:13.819Z,49.03
2022-10-20T16:28:40.960Z,48.92
2022-10-20T16:31:11.284Z,48.92
2022-10-20T16:33:38.290Z,48.87
2022-10-20T16:36:09.220Z,49.05
2022-10-20T16:38:40.083Z,49.28
2022-10-20T16:41:11.782Z,49.28
2022-10-20T16:43:41.062Z,49.49
2022-10-20T16:46:09.682Z,49.34
2022-10-20T16:48:39.008Z,49.47
2022-10-20T16:51:09.875Z,49.71
2022-10-20T16:53:37.346Z,49.71
2022-10-20T16:56:04.765Z,49.64
2022-10-20T16:58:31.691Z,49.80
2022-10-20T17:01:08.269Z,50.11
2022-10-20T17:03:38.282Z,49.76
2022-10-20T17:06:07.621Z,49.90
2022-10-20T17:08:36.802Z,50.10
2022-10-20T17:11:08.342Z,50.05
2022-10-20T17:13:36.619Z,50.32
2022-10-20T17:16:11.735Z,50.39
2022-10-20T17:18:38.958Z,50.44
2022-10-20T17:21:06.813Z,50.56
2022-10-20T17:23:38.830Z,50.76
2022-10-20T17:26:16.556Z,50.88
2022-10-20T17:28:43.513Z,50.69
2022-10-20T17:31:13.661Z,50.92
2022-10-20T17:33:41.023Z,50.98
2022-10-20T17:36:08.844Z,50.77
2022-10-20T17:38:36.285Z,51.10
2022-10-20T17:41:05.457Z,51.25
2022-10-20T17:43:32.656Z,51.02
2022-10-20T17:46:03.352Z,51.31
2022-10-20T17:48:30.383Z,51.47
2022-10-20T17:51:14.419Z,51.79
2022-10-20T17:53:47.986Z,51.42
2022-10-20T17:56:21.771Z,52.15
2022-10-20T17:58:50.807Z,51.69
2022-10-20T18:01:24.877Z,51.71
2022-10-20T18:04:13.629Z,51.49
2022-10-20T18:06:41.457Z,52.15
2022-10-20T18:09:12.296Z,51.79
2022-10-20T18:11:43.358Z,51.95
2022-10-20T18:14:10.251Z,51.86
2022-10-20T18:16:39.481Z,52.16
2022-10-20T18:19:08.312Z,52.14
2022-10-20T18:21:35.265Z,52.01
2022-10-20T18:24:05.920Z,52.20
2022-10-20T18:26:35.423Z,52.20
2022-10-20T18:29:04.920Z,51.60
2022-10-20T18:31:33.676Z,52.31
2022-10-20T18:34:08.249Z,52.13
2022-10-20T18:36:39.320Z,52.34
2022-10-20T18:39:09.467Z,52.20
2022-10-20T18:41:39.595Z,52.13
2022-10-20T18:44:12.545Z,52.40
2022-10-20T18:46:40.496Z,52.24
2022-10-20T18:49:09.283Z,52.72
2022-10-20T18:51:36.776Z,52.29
2022-10-20T18:54:06.088Z,52.55
2022-10-20T18:56:33.452Z,52.42
2022-10-20T18:59:06.895Z,52.75
2022-10-20T19:01:37.219Z,52.58
2022-10-20T19:04:05.779Z,52.63
2022-10-20T19:06:42.207Z,52.92
2022-10-20T19:09:15.973Z,52.76
2022-10-20T19:11:44.489Z,53.05
2022-10-20T19:14:12.385Z,53.12
2022-10-20T19:16:42.004Z,53.00
2022-10-20T19:19:10.786Z,52.81
2022-10-20T19:21:38.175Z,53.22
2022-10-20T19:24:14.827Z,53.18
2022-10-20T19:29:50.132Z,53.26
2022-10-20T19:32:17.541Z,53.41
2022-10-20T19:34:45.192Z,53.36
2022-10-20T19:37:12.054Z,53.49
2022-10-20T19:39:41.991Z,53.35
2022-10-20T19:42:10.096Z,53.36
2022-10-20T19:44:37.790Z,53.40
2022-10-20T19:47:05.388Z,53.62
2022-10-20T19:49:32.627Z,53.61
2022-10-20T19:51:59.995Z,53.52
2022-10-20T19:54:27.358Z,53.76
2022-10-20T19:56:54.296Z,53.51
2022-10-20T19:59:21.433Z,53.57
2022-10-20T20:01:49.655Z,53.71
2022-10-20T20:04:16.756Z,53.86
2022-10-20T20:06:43.625Z,53.62
2022-10-20T20:09:12.022Z,53.61
2022-10-20T20:11:39.968Z,53.95
2022-10-20T20:14:18.935Z,53.83
2022-10-20T20:16:47.129Z,53.80
2022-10-20T20:19:16.173Z,53.55
2022-10-20T20:21:43.208Z,53.64
2022-10-20T20:24:12.590Z,53.83
2022-10-20T20:26:39.502Z,53.88
2022-10-20T20:29:06.387Z,54.00
2022-10-20T20:31:33.623Z,54.16
2022-10-20T20:34:00.546Z,54.35
2022-10-20T20:36:28.248Z,54.11
2022-10-20T20:38:59.237Z,53.91
2022-10-20T20:41:29.985Z,53.92
2022-10-20T20:43:56.953Z,53.93
2022-10-20T20:46:28.827Z,54.25
2022-10-20T20:48:55.848Z,54.08
2022-10-20T20:51:22.762Z,54.48
2022-10-20T20:53:49.635Z,54.55
2022-10-20T20:56:20.554Z,53.97
2022-10-20T20:58:50.721Z,54.75
2022-10-20T21:01:24.797Z,54.58
2022-10-20T21:04:02.840Z,54.68
2022-10-20T21:06:38.028Z,54.51
2022-10-20T21:09:16.609Z,54.67
2022-10-20T21:11:43.476Z,54.52
2022-10-20T21:14:10.401Z,54.82
2022-10-20T21:16:37.851Z,54.66
2022-10-20T21:19:10.730Z,54.73
2022-10-20T21:21:44.334Z,54.62
2022-10-20T21:24:12.730Z,55.00
2022-10-20T21:26:40.338Z,54.84
2022-10-20T21:29:07.302Z,54.54
2022-10-20T21:31:34.232Z,54.56
2022-10-20T21:34:04.862Z,54.65
2022-10-20T21:36:35.237Z,54.96
2022-10-20T21:39:05.220Z,54.77
2022-10-20T21:41:34.261Z,54.85
2022-10-20T21:44:03.571Z,54.77
2022-10-20T21:46:36.932Z,54.74
2022-10-20T21:49:07.386Z,54.95
2022-10-20T21:51:37.181Z,54.70
2022-10-20T21:54:08.630Z,54.47
2022-10-20T21:56:37.428Z,54.89
2022-10-20T21:59:05.904Z,54.98
2022-10-20T22:01:33.398Z,54.88
2022-10-20T22:04:00.352Z,54.91
2022-10-20T22:06:28.300Z,54.72
2022-10-20T22:08:58.113Z,54.76
2022-10-20T22:11:29.171Z,55.15
2022-10-20T22:13:56.421Z,55.08
2022-10-20T22:16:27.420Z,54.98
2022-10-20T22:19:05.536Z,55.51
2022-10-20T22:21:37.295Z,55.10
2022-10-20T22:24:04.926Z,55.30
2022-10-20T22:26:32.339Z,55.51
2022-10-20T22:29:00.557Z,55.20
2022-10-20T22:31:28.299Z,55.52
2022-10-20T22:33:57.524Z,55.21
2022-10-20T22:36:25.800Z,55.37
2022-10-20T22:38:52.993Z,55.14
2022-10-20T22:41:19.850Z,55.41
2022-10-20T22:43:46.799Z,55.60
2022-10-20T22:46:13.715Z,55.64
2022-10-20T22:48:40.589Z,55.72
2022-10-20T22:51:09.773Z,55.55
2022-10-20T22:53:38.103Z,55.55
2022-10-20T22:56:15.628Z,55.35
2022-10-20T22:58:43.349Z,55.60
2022-10-20T23:01:13.703Z,55.56
2022-10-20T23:03:40.767Z,55.47
2022-10-20T23:06:17.439Z,55.57
2022-10-20T23:08:48.354Z,55.17
2022-10-20T23:11:16.691Z,54.99
2022-10-20T23:13:44.407Z,55.46
2022-10-20T23:16:11.927Z,55.35
2022-10-20T23:18:38.881Z,55.21
2022-10-20T23:21:06.601Z,55.36
2022-10-20T23:23:36.739Z,55.17
2022-10-20T23:26:05.134Z,55.27
2022-10-20T23:28:33.148Z,55.37
2022-10-20T23:31:15.323Z,55.30
2022-10-20T23:33:43.874Z,55.09
2022-10-20T23:36:12.153Z,55.04
2022-10-20T23:38:39.109Z,55.15
2022-10-20T23:41:06.170Z,55.08
2022-10-20T23:43:33.886Z,55.04
2022-10-20T23:46:01.036Z,54.86
2022-10-20T23:48:29.069Z,54.73
2022-10-20T23:50:56.401Z,54.56
2022-10-20T23:53:23.487Z,54.80
2022-10-20T23:55:50.352Z,54.83
2022-10-20T23:58:21.929Z,54.81
